メインページ
METAR-TAF:

METAR-TAF

空港 :

コネ, ニューカレドニア

緯度: 21-03-12S, 経度: 164-50-18E, 海抜: 7m

METAR: 見つかりません

時間: 06:24 (19:24 UTC)

予報

当レポートは2時間24分前の17:00(UTC)に作成
予報は15日の 18時(UTC)から 16日の 18時(UTC)まで有効
東/北東の風 15kt
視程10km以上
高度3000ftの雲は散在している
確率 40% :
16日の 00時(UTC)から 16日の 06時(UTC)まで一時的に
東/北東の風 15kt、最大25ktの突風を伴う
視程: 4000m
高度2000ftの雲は散在している, 塔状積雲.
にわか雨

TAF: NWWD 151700Z 1518/1618 07015KT 9999 SCT030 PROB40 TEMPO 1600/1606 06015G25KT 4000 SHRA SCT020TCU

4,000以上の空港の気象観測と天気予報(METAR報とTAF報)

利用可能な観測所は地図上に黄色い丸と赤い丸で示す。

丸の上にカーソルを重ねると観測所名を参照できる。

次にクリックすると気象観測と天気予報を参照できる。

マップの切り替え:黒色「×」印の緑ボタンをクリックして拡大、「-」印の緑ボタンをクリックして縮小、緑色の三角印をクリックして隣りの地図に切り替え


METAR-TAF: